sensor_id;sensor_type;location;lat;lon;timestamp;pressure;altitude;pressure_sealevel;temperature;humidity
67818;BME280;54614;47.576;7.524;2022-09-09T00:00:13;98234.06;;;27.95;44.80
67818;BME280;54614;47.576;7.524;2022-09-09T00:02:54;98235.63;;;28.08;44.44
67818;BME280;54614;47.576;7.524;2022-09-09T00:08:23;98228.25;;;28.03;44.37
67818;BME280;54614;47.576;7.524;2022-09-09T00:11:03;98234.81;;;28.07;44.39
67818;BME280;54614;47.576;7.524;2022-09-09T00:13:39;98229.50;;;28.12;44.39
67818;BME280;54614;47.576;7.524;2022-09-09T00:16:19;98225.03;;;27.89;44.67
67818;BME280;54614;47.576;7.524;2022-09-09T00:27:25;98223.16;;;27.90;44.47
67818;BME280;54614;47.576;7.524;2022-09-09T00:30:31;98211.38;;;27.96;44.54
67818;BME280;54614;47.576;7.524;2022-09-09T00:33:10;98213.13;;;28.19;43.90
67818;BME280;54614;47.576;7.524;2022-09-09T00:35:58;98217.34;;;27.98;44.16
67818;BME280;54614;47.576;7.524;2022-09-09T00:43:36;98227.88;;;28.11;44.27
67818;BME280;54614;47.576;7.524;2022-09-09T00:49:23;98257.59;;;28.11;44.14
67818;BME280;54614;47.576;7.524;2022-09-09T00:55:17;98285.47;;;28.12;44.03
67818;BME280;54614;47.576;7.524;2022-09-09T00:57:50;98287.41;;;28.00;44.21
67818;BME280;54614;47.576;7.524;2022-09-09T01:00:23;98275.72;;;28.11;44.04
67818;BME280;54614;47.576;7.524;2022-09-09T01:03:49;98268.66;;;28.10;44.13
67818;BME280;54614;47.576;7.524;2022-09-09T01:11:26;98263.97;;;28.05;44.44
67818;BME280;54614;47.576;7.524;2022-09-09T01:14:19;98257.28;;;28.08;43.94
67818;BME280;54614;47.576;7.524;2022-09-09T01:16:59;98244.56;;;28.08;44.31
67818;BME280;54614;47.576;7.524;2022-09-09T01:22:35;98248.81;;;28.04;44.16
67818;BME280;54614;47.576;7.524;2022-09-09T01:28:28;98246.91;;;27.88;44.89
67818;BME280;54614;47.576;7.524;2022-09-09T01:30:57;98245.69;;;28.24;44.82
67818;BME280;54614;47.576;7.524;2022-09-09T01:33:24;98239.41;;;28.07;44.66
67818;BME280;54614;47.576;7.524;2022-09-09T01:36:18;98240.41;;;28.17;44.78
67818;BME280;54614;47.576;7.524;2022-09-09T01:38:46;98233.09;;;28.01;45.17
67818;BME280;54614;47.576;7.524;2022-09-09T01:41:12;98240.13;;;28.02;45.09
67818;BME280;54614;47.576;7.524;2022-09-09T01:43:38;98239.16;;;28.08;44.62
67818;BME280;54614;47.576;7.524;2022-09-09T01:46:04;98243.91;;;28.01;44.72
67818;BME280;54614;47.576;7.524;2022-09-09T01:48:31;98240.66;;;28.16;44.42
67818;BME280;54614;47.576;7.524;2022-09-09T01:50:57;98244.09;;;28.11;44.73
67818;BME280;54614;47.576;7.524;2022-09-09T01:53:23;98239.97;;;28.09;44.32
67818;BME280;54614;47.576;7.524;2022-09-09T01:55:58;98245.41;;;28.09;44.55
67818;BME280;54614;47.576;7.524;2022-09-09T02:01:50;98245.63;;;28.07;44.42
67818;BME280;54614;47.576;7.524;2022-09-09T02:04:43;98243.09;;;28.01;44.54
67818;BME280;54614;47.576;7.524;2022-09-09T02:07:39;98246.94;;;28.05;44.54
67818;BME280;54614;47.576;7.524;2022-09-09T02:10:18;98243.25;;;28.11;44.37
67818;BME280;54614;47.576;7.524;2022-09-09T02:13:12;98235.63;;;28.08;44.49
67818;BME280;54614;47.576;7.524;2022-09-09T02:16:14;98237.63;;;28.12;44.49
67818;BME280;54614;47.576;7.524;2022-09-09T02:19:01;98233.09;;;28.01;44.60
67818;BME280;54614;47.576;7.524;2022-09-09T02:21:33;98222.78;;;28.15;44.16
67818;BME280;54614;47.576;7.524;2022-09-09T02:24:06;98227.38;;;28.14;44.40
67818;BME280;54614;47.576;7.524;2022-09-09T02:26:39;98230.06;;;28.14;44.33
67818;BME280;54614;47.576;7.524;2022-09-09T02:29:20;98225.06;;;28.06;44.63
67818;BME280;54614;47.576;7.524;2022-09-09T02:31:49;98215.00;;;28.18;44.45
67818;BME280;54614;47.576;7.524;2022-09-09T02:34:20;98214.69;;;28.15;44.31
67818;BME280;54614;47.576;7.524;2022-09-09T02:36:49;98223.28;;;28.12;44.80
67818;BME280;54614;47.576;7.524;2022-09-09T02:39:16;98215.56;;;28.04;44.56
67818;BME280;54614;47.576;7.524;2022-09-09T02:41:42;98216.56;;;28.14;44.46
67818;BME280;54614;47.576;7.524;2022-09-09T02:44:17;98220.81;;;28.10;44.57
67818;BME280;54614;47.576;7.524;2022-09-09T02:47:35;98226.28;;;27.99;44.79
67818;BME280;54614;47.576;7.524;2022-09-09T02:50:25;98228.53;;;28.18;44.47
67818;BME280;54614;47.576;7.524;2022-09-09T02:55:46;98242.13;;;28.07;44.53
67818;BME280;54614;47.576;7.524;2022-09-09T02:58:17;98235.88;;;28.06;44.58
67818;BME280;54614;47.576;7.524;2022-09-09T03:00:49;98234.25;;;28.05;44.57
67818;BME280;54614;47.576;7.524;2022-09-09T03:03:18;98230.13;;;28.03;44.65
67818;BME280;54614;47.576;7.524;2022-09-09T03:05:45;98236.22;;;28.10;44.69
67818;BME280;54614;47.576;7.524;2022-09-09T03:08:12;98222.38;;;28.06;44.50
67818;BME280;54614;47.576;7.524;2022-09-09T03:10:39;98222.94;;;28.08;44.78
67818;BME280;54614;47.576;7.524;2022-09-09T03:13:05;98223.66;;;28.04;44.72
67818;BME280;54614;47.576;7.524;2022-09-09T03:15:33;98222.94;;;28.08;44.49
67818;BME280;54614;47.576;7.524;2022-09-09T03:17:59;98222.84;;;28.03;44.88
67818;BME280;54614;47.576;7.524;2022-09-09T03:20:28;98215.41;;;28.10;44.72
67818;BME280;54614;47.576;7.524;2022-09-09T03:22:55;98219.03;;;28.16;44.60
67818;BME280;54614;47.576;7.524;2022-09-09T03:25:23;98218.94;;;28.11;44.46
67818;BME280;54614;47.576;7.524;2022-09-09T03:27:53;98224.72;;;28.03;44.61
67818;BME280;54614;47.576;7.524;2022-09-09T03:30:27;98223.53;;;28.10;44.88
67818;BME280;54614;47.576;7.524;2022-09-09T03:32:54;98223.44;;;28.05;44.71
67818;BME280;54614;47.576;7.524;2022-09-09T03:35:21;98224.16;;;28.01;44.61
67818;BME280;54614;47.576;7.524;2022-09-09T03:37:47;98224.16;;;28.01;45.14
67818;BME280;54614;47.576;7.524;2022-09-09T03:40:13;98232.59;;;28.04;44.96
67818;BME280;54614;47.576;7.524;2022-09-09T03:42:40;98230.09;;;27.86;45.13
67818;BME280;54614;47.576;7.524;2022-09-09T03:45:08;98233.28;;;27.83;45.29
67818;BME280;54614;47.576;7.524;2022-09-09T03:47:36;98228.66;;;27.95;44.84
67818;BME280;54614;47.576;7.524;2022-09-09T03:50:04;98226.94;;;28.06;45.11
67818;BME280;54614;47.576;7.524;2022-09-09T03:52:36;98226.16;;;27.77;45.71
67818;BME280;54614;47.576;7.524;2022-09-09T03:55:02;98223.28;;;27.83;45.62
67818;BME280;54614;47.576;7.524;2022-09-09T03:57:28;98225.69;;;27.97;45.74
67818;BME280;54614;47.576;7.524;2022-09-09T03:59:55;98216.47;;;28.09;45.00
67818;BME280;54614;47.576;7.524;2022-09-09T04:02:21;98220.97;;;28.04;45.35
67818;BME280;54614;47.576;7.524;2022-09-09T04:04:47;98217.25;;;27.93;45.39
67818;BME280;54614;47.576;7.524;2022-09-09T04:07:13;98220.47;;;28.07;45.19
67818;BME280;54614;47.576;7.524;2022-09-09T04:09:39;98217.53;;;28.08;45.01
67818;BME280;54614;47.576;7.524;2022-09-09T04:12:05;98215.06;;;28.07;44.87
67818;BME280;54614;47.576;7.524;2022-09-09T04:14:32;98222.59;;;28.05;44.93
67818;BME280;54614;47.576;7.524;2022-09-09T04:16:58;98217.28;;;28.10;44.70
67818;BME280;54614;47.576;7.524;2022-09-09T04:19:25;98213.09;;;28.02;44.90
67818;BME280;54614;47.576;7.524;2022-09-09T04:21:51;98219.00;;;27.99;44.91
67818;BME280;54614;47.576;7.524;2022-09-09T04:24:17;98215.63;;;27.92;45.13
67818;BME280;54614;47.576;7.524;2022-09-09T04:26:43;98222.09;;;27.91;44.97
67818;BME280;54614;47.576;7.524;2022-09-09T04:29:10;98222.91;;;27.91;44.89
67818;BME280;54614;47.576;7.524;2022-09-09T04:31:36;98227.59;;;27.96;45.02
67818;BME280;54614;47.576;7.524;2022-09-09T04:34:08;98221.69;;;27.99;45.14
67818;BME280;54614;47.576;7.524;2022-09-09T04:36:34;98223.00;;;27.97;45.16
67818;BME280;54614;47.576;7.524;2022-09-09T04:39:01;98226.56;;;27.45;46.06
67818;BME280;54614;47.576;7.524;2022-09-09T04:41:27;98228.88;;;27.65;45.51
67818;BME280;54614;47.576;7.524;2022-09-09T04:43:54;98234.09;;;27.43;46.08
67818;BME280;54614;47.576;7.524;2022-09-09T04:46:23;98238.84;;;27.13;46.87
67818;BME280;54614;47.576;7.524;2022-09-09T04:48:50;98244.47;;;27.11;46.96
67818;BME280;54614;47.576;7.524;2022-09-09T04:51:17;98243.66;;;26.99;47.25
67818;BME280;54614;47.576;7.524;2022-09-09T04:53:44;98235.31;;;27.24;46.74
67818;BME280;54614;47.576;7.524;2022-09-09T04:56:16;98233.66;;;27.75;45.54
67818;BME280;54614;47.576;7.524;2022-09-09T04:58:42;98231.75;;;27.87;45.10
67818;BME280;54614;47.576;7.524;2022-09-09T05:01:18;98237.47;;;27.90;45.27
67818;BME280;54614;47.576;7.524;2022-09-09T05:03:45;98232.13;;;27.79;45.29
67818;BME280;54614;47.576;7.524;2022-09-09T05:06:15;98234.72;;;27.74;45.67
67818;BME280;54614;47.576;7.524;2022-09-09T05:08:42;98241.69;;;27.70;45.41
67818;BME280;54614;47.576;7.524;2022-09-09T05:11:21;98245.34;;;27.64;45.42
67818;BME280;54614;47.576;7.524;2022-09-09T05:13:50;98234.53;;;27.64;45.39
67818;BME280;54614;47.576;7.524;2022-09-09T05:16:17;98249.09;;;27.63;45.42
67818;BME280;54614;47.576;7.524;2022-09-09T05:18:44;98240.88;;;27.57;45.33
67818;BME280;54614;47.576;7.524;2022-09-09T05:21:12;98242.50;;;27.58;45.47
67818;BME280;54614;47.576;7.524;2022-09-09T05:23:38;98242.50;;;27.58;45.76
67818;BME280;54614;47.576;7.524;2022-09-09T05:26:06;98239.81;;;27.58;45.45
67818;BME280;54614;47.576;7.524;2022-09-09T05:28:35;98237.34;;;27.57;45.43
67818;BME280;54614;47.576;7.524;2022-09-09T05:31:05;98244.38;;;27.58;45.37
67818;BME280;54614;47.576;7.524;2022-09-09T05:33:35;98252.78;;;27.33;45.11
67818;BME280;54614;47.576;7.524;2022-09-09T05:36:06;98259.03;;;27.22;46.55
67818;BME280;54614;47.576;7.524;2022-09-09T05:38:34;98256.56;;;27.20;45.34
67818;BME280;54614;47.576;7.524;2022-09-09T05:41:01;98253.41;;;27.12;46.63
67818;BME280;54614;47.576;7.524;2022-09-09T05:43:28;98263.63;;;27.10;46.73
67818;BME280;54614;47.576;7.524;2022-09-09T05:46:12;98272.19;;;27.18;46.06
67818;BME280;54614;47.576;7.524;2022-09-09T05:48:41;98276.16;;;27.27;45.51
67818;BME280;54614;47.576;7.524;2022-09-09T05:51:14;98271.00;;;27.26;45.65
67818;BME280;54614;47.576;7.524;2022-09-09T05:53:45;98271.34;;;27.18;45.86
67818;BME280;54614;47.576;7.524;2022-09-09T05:56:17;98266.44;;;27.15;45.84
67818;BME280;54614;47.576;7.524;2022-09-09T05:58:43;98275.22;;;27.22;45.30
67818;BME280;54614;47.576;7.524;2022-09-09T06:01:21;98267.59;;;27.19;45.25
67818;BME280;54614;47.576;7.524;2022-09-09T06:03:49;98276.88;;;27.11;45.01
67818;BME280;54614;47.576;7.524;2022-09-09T06:06:22;98278.16;;;27.09;45.35
67818;BME280;54614;47.576;7.524;2022-09-09T06:08:51;98265.72;;;27.08;45.25
67818;BME280;54614;47.576;7.524;2022-09-09T06:11:22;98273.69;;;27.14;45.37
67818;BME280;54614;47.576;7.524;2022-09-09T06:13:49;98272.28;;;27.12;45.15
67818;BME280;54614;47.576;7.524;2022-09-09T06:16:19;98267.94;;;27.11;44.79
67818;BME280;54614;47.576;7.524;2022-09-09T06:18:46;98264.56;;;27.04;45.53
67818;BME280;54614;47.576;7.524;2022-09-09T06:21:19;98263.38;;;27.00;45.41
67818;BME280;54614;47.576;7.524;2022-09-09T06:23:46;98254.31;;;26.94;45.43
67818;BME280;54614;47.576;7.524;2022-09-09T06:26:24;98253.50;;;26.93;45.69
67818;BME280;54614;47.576;7.524;2022-09-09T06:28:54;98259.34;;;26.90;46.03
67818;BME280;54614;47.576;7.524;2022-09-09T06:31:23;98259.13;;;26.92;45.97
67818;BME280;54614;47.576;7.524;2022-09-09T06:33:52;98268.28;;;26.91;45.75
67818;BME280;54614;47.576;7.524;2022-09-09T06:36:23;98271.69;;;26.86;46.13
67818;BME280;54614;47.576;7.524;2022-09-09T06:38:49;98274.03;;;26.83;46.26
67818;BME280;54614;47.576;7.524;2022-09-09T06:41:18;98273.19;;;26.82;46.10
67818;BME280;54614;47.576;7.524;2022-09-09T06:43:45;98278.84;;;26.81;46.12
67818;BME280;54614;47.576;7.524;2022-09-09T06:46:16;98276.59;;;26.66;46.50
67818;BME280;54614;47.576;7.524;2022-09-09T06:48:43;98278.34;;;26.72;46.14
67818;BME280;54614;47.576;7.524;2022-09-09T06:51:19;98284.44;;;26.68;45.54
67818;BME280;54614;47.576;7.524;2022-09-09T06:53:47;98287.84;;;26.63;45.51
67818;BME280;54614;47.576;7.524;2022-09-09T06:56:28;98292.06;;;26.71;45.00
67818;BME280;54614;47.576;7.524;2022-09-09T06:58:57;98290.31;;;26.64;45.34
67818;BME280;54614;47.576;7.524;2022-09-09T07:01:42;98293.38;;;26.68;45.21
67818;BME280;54614;47.576;7.524;2022-09-09T07:04:11;98300.63;;;26.68;45.34
67818;BME280;54614;47.576;7.524;2022-09-09T07:06:44;98299.13;;;26.72;45.23
67818;BME280;54614;47.576;7.524;2022-09-09T07:09:15;98296.53;;;26.65;45.91
67818;BME280;54614;47.576;7.524;2022-09-09T07:11:50;98300.75;;;26.73;45.97
67818;BME280;54614;47.576;7.524;2022-09-09T07:14:18;98305.81;;;26.81;45.72
67818;BME280;54614;47.576;7.524;2022-09-09T07:16:46;98310.28;;;26.87;45.67
67818;BME280;54614;47.576;7.524;2022-09-09T07:19:13;98309.56;;;26.80;45.88
67818;BME280;54614;47.576;7.524;2022-09-09T07:21:40;98313.34;;;26.90;45.70
67818;BME280;54614;47.576;7.524;2022-09-09T07:24:06;98312.63;;;26.95;45.70
67818;BME280;54614;47.576;7.524;2022-09-09T07:26:38;98311.09;;;26.87;46.17
67818;BME280;54614;47.576;7.524;2022-09-09T07:29:05;98322.03;;;26.92;46.08
67818;BME280;54614;47.576;7.524;2022-09-09T07:31:36;98311.38;;;26.98;45.94
67818;BME280;54614;47.576;7.524;2022-09-09T07:34:03;98315.72;;;26.99;45.92
67818;BME280;54614;47.576;7.524;2022-09-09T07:36:35;98312.09;;;27.05;45.79
67818;BME280;54614;47.576;7.524;2022-09-09T07:39:13;98307.38;;;27.00;46.12
67818;BME280;54614;47.576;7.524;2022-09-09T07:41:47;98313.63;;;27.01;46.08
67818;BME280;54614;47.576;7.524;2022-09-09T07:44:22;98317.94;;;27.02;45.95
67818;BME280;54614;47.576;7.524;2022-09-09T07:46:50;98315.25;;;27.02;46.08
67818;BME280;54614;47.576;7.524;2022-09-09T07:49:16;98319.13;;;27.06;46.18
67818;BME280;54614;47.576;7.524;2022-09-09T07:51:46;98317.13;;;27.01;46.51
67818;BME280;54614;47.576;7.524;2022-09-09T07:54:16;98319.59;;;27.03;46.56
67818;BME280;54614;47.576;7.524;2022-09-09T07:56:43;98317.50;;;27.16;45.94
67818;BME280;54614;47.576;7.524;2022-09-09T07:59:09;98317.47;;;27.28;45.87
67818;BME280;54614;47.576;7.524;2022-09-09T08:01:40;98312.19;;;27.33;46.26
67818;BME280;54614;47.576;7.524;2022-09-09T08:04:10;98314.31;;;27.31;46.05
67818;BME280;54614;47.576;7.524;2022-09-09T08:06:44;98326.19;;;27.30;46.12
67818;BME280;54614;47.576;7.524;2022-09-09T08:09:12;98323.00;;;27.33;46.21
67818;BME280;54614;47.576;7.524;2022-09-09T08:11:39;98328.06;;;27.29;46.45
67818;BME280;54614;47.576;7.524;2022-09-09T08:14:07;98327.34;;;27.34;46.31
67818;BME280;54614;47.576;7.524;2022-09-09T08:16:38;98326.75;;;27.32;46.28
67818;BME280;54614;47.576;7.524;2022-09-09T08:19:05;98335.91;;;27.19;46.78
67818;BME280;54614;47.576;7.524;2022-09-09T08:21:35;98332.41;;;27.19;46.98
67818;BME280;54614;47.576;7.524;2022-09-09T08:24:03;98331.81;;;27.17;46.74
67818;BME280;54614;47.576;7.524;2022-09-09T08:26:34;98321.72;;;27.12;47.37
67818;BME280;54614;47.576;7.524;2022-09-09T08:29:03;98322.41;;;27.19;47.12
67818;BME280;54614;47.576;7.524;2022-09-09T08:31:33;98331.22;;;27.15;47.28
67818;BME280;54614;47.576;7.524;2022-09-09T08:34:01;98323.25;;;27.20;47.16
67818;BME280;54614;47.576;7.524;2022-09-09T08:36:32;98323.47;;;27.30;47.21
67818;BME280;54614;47.576;7.524;2022-09-09T08:39:04;98323.69;;;27.40;46.83
67818;BME280;54614;47.576;7.524;2022-09-09T08:50:26;98328.84;;;27.53;46.44
67818;BME280;54614;47.576;7.524;2022-09-09T08:53:16;98330.50;;;27.54;46.68
67818;BME280;54614;47.576;7.524;2022-09-09T08:56:01;98336.84;;;27.48;46.78
67818;BME280;54614;47.576;7.524;2022-09-09T08:58:32;98332.72;;;27.57;46.65
67818;BME280;54614;47.576;7.524;2022-09-09T09:09:37;98341.56;;;27.65;46.27
67818;BME280;54614;47.576;7.524;2022-09-09T09:12:22;98329.69;;;27.66;46.28
67818;BME280;54614;47.576;7.524;2022-09-09T09:14:49;98327.09;;;27.59;46.51
67818;BME280;54614;47.576;7.524;2022-09-09T09:17:21;98326.16;;;27.65;46.53
67818;BME280;54614;47.576;7.524;2022-09-09T09:19:49;98328.38;;;27.56;46.88
67818;BME280;54614;47.576;7.524;2022-09-09T09:22:43;98329.19;;;27.57;46.86
67818;BME280;54614;47.576;7.524;2022-09-09T09:25:19;98325.19;;;27.59;46.78
67818;BME280;54614;47.576;7.524;2022-09-09T09:27:55;98334.97;;;27.60;46.86
67818;BME280;54614;47.576;7.524;2022-09-09T09:30:28;98324.28;;;27.54;47.07
67818;BME280;54614;47.576;7.524;2022-09-09T09:33:26;98333.78;;;27.68;46.46
67818;BME280;54614;47.576;7.524;2022-09-09T09:35:55;98324.81;;;27.91;45.64
67818;BME280;54614;47.576;7.524;2022-09-09T09:38:24;98340.13;;;27.74;46.03
67818;BME280;54614;47.576;7.524;2022-09-09T09:40:58;98332.16;;;27.67;46.57
67818;BME280;54614;47.576;7.524;2022-09-09T09:43:32;98333.78;;;27.56;46.74
67818;BME280;54614;47.576;7.524;2022-09-09T09:45:59;98326.72;;;27.55;46.82
67818;BME280;54614;47.576;7.524;2022-09-09T09:48:27;98322.13;;;27.79;46.22
67818;BME280;54614;47.576;7.524;2022-09-09T09:51:08;98307.72;;;27.50;46.97
67818;BME280;54614;47.576;7.524;2022-09-09T09:53:38;98305.50;;;27.47;47.36
67818;BME280;54614;47.576;7.524;2022-09-09T09:56:08;98315.22;;;27.48;47.19
67818;BME280;54614;47.576;7.524;2022-09-09T09:58:54;98296.44;;;27.53;47.17
67818;BME280;54614;47.576;7.524;2022-09-09T10:01:32;98290.69;;;27.62;46.76
67818;BME280;54614;47.576;7.524;2022-09-09T10:06:39;98299.25;;;27.58;46.31
67818;BME280;54614;47.576;7.524;2022-09-09T10:09:38;98318.78;;;27.60;46.85
67818;BME280;54614;47.576;7.524;2022-09-09T10:15:20;98302.91;;;27.64;46.97
67818;BME280;54614;47.576;7.524;2022-09-09T10:18:17;98294.91;;;27.69;46.61
67818;BME280;54614;47.576;7.524;2022-09-09T10:29:44;98293.44;;;27.90;46.18
67818;BME280;54614;47.576;7.524;2022-09-09T10:49:50;98286.28;;;28.41;44.99
67818;BME280;54614;47.576;7.524;2022-09-09T10:53:05;98282.03;;;28.16;45.26
67818;BME280;54614;47.576;7.524;2022-09-09T10:55:49;98285.28;;;28.30;44.97
67818;BME280;54614;47.576;7.524;2022-09-09T10:58:52;98282.34;;;28.32;44.33
67818;BME280;54614;47.576;7.524;2022-09-09T11:01:37;98283.09;;;28.15;44.66
67818;BME280;54614;47.576;7.524;2022-09-09T11:04:32;98284.16;;;28.14;44.65
67818;BME280;54614;47.576;7.524;2022-09-09T11:07:05;98286.38;;;28.17;44.67
67818;BME280;54614;47.576;7.524;2022-09-09T11:09:41;98282.84;;;28.17;44.64
67818;BME280;54614;47.576;7.524;2022-09-09T11:12:18;98285.06;;;28.20;44.54
67818;BME280;54614;47.576;7.524;2022-09-09T11:15:30;98277.53;;;28.22;44.55
67818;BME280;54614;47.576;7.524;2022-09-09T11:18:01;98281.03;;;28.34;43.86
67818;BME280;54614;47.576;7.524;2022-09-09T11:20:29;98279.09;;;28.46;43.60
67818;BME280;54614;47.576;7.524;2022-09-09T11:23:27;98280.16;;;28.45;43.85
67818;BME280;54614;47.576;7.524;2022-09-09T11:26:03;98277.34;;;28.40;43.56
67818;BME280;54614;47.576;7.524;2022-09-09T11:42:23;98281.28;;;28.33;44.09
67818;BME280;54614;47.576;7.524;2022-09-09T11:44:50;98283.41;;;28.31;44.17
67818;BME280;54614;47.576;7.524;2022-09-09T11:47:28;98285.13;;;28.37;43.75
67818;BME280;54614;47.576;7.524;2022-09-09T11:52:44;98283.97;;;28.33;43.62
67818;BME280;54614;47.576;7.524;2022-09-09T11:55:31;98273.41;;;28.31;43.73
67818;BME280;54614;47.576;7.524;2022-09-09T11:58:16;98270.94;;;28.30;43.78
67818;BME280;54614;47.576;7.524;2022-09-09T12:00:49;98262.59;;;28.31;43.58
67818;BME280;54614;47.576;7.524;2022-09-09T12:03:50;98266.13;;;28.32;43.81
67818;BME280;54614;47.576;7.524;2022-09-09T12:06:33;98267.09;;;28.26;44.35
67818;BME280;54614;47.576;7.524;2022-09-09T12:09:18;98269.78;;;28.26;44.09
67818;BME280;54614;47.576;7.524;2022-09-09T12:11:46;98279.56;;;28.27;44.00
67818;BME280;54614;47.576;7.524;2022-09-09T12:17:30;98278.25;;;28.29;43.56
67818;BME280;54614;47.576;7.524;2022-09-09T12:26:01;98278.84;;;28.19;43.91
67818;BME280;54614;47.576;7.524;2022-09-09T12:28:44;98281.09;;;28.22;43.95
67818;BME280;54614;47.576;7.524;2022-09-09T12:34:16;98286.72;;;28.21;43.71
67818;BME280;54614;47.576;7.524;2022-09-09T12:36:51;98287.09;;;28.24;43.69
67818;BME280;54614;47.576;7.524;2022-09-09T12:39:37;98298.34;;;28.21;43.95
67818;BME280;54614;47.576;7.524;2022-09-09T12:42:03;98297.66;;;28.26;43.54
67818;BME280;54614;47.576;7.524;2022-09-09T12:44:30;98300.72;;;28.18;43.52
67818;BME280;54614;47.576;7.524;2022-09-09T12:47:01;98297.31;;;28.22;43.31
67818;BME280;54614;47.576;7.524;2022-09-09T12:49:36;98293.66;;;28.29;43.24
67818;BME280;54614;47.576;7.524;2022-09-09T12:52:24;98292.50;;;28.24;43.52
67818;BME280;54614;47.576;7.524;2022-09-09T12:54:53;98281.44;;;28.26;43.17
67818;BME280;54614;47.576;7.524;2022-09-09T12:57:22;98288.97;;;28.24;43.45
67818;BME280;54614;47.576;7.524;2022-09-09T12:59:51;98276.34;;;28.30;43.32
67818;BME280;54614;47.576;7.524;2022-09-09T13:02:25;98277.34;;;28.23;43.78
67818;BME280;54614;47.576;7.524;2022-09-09T13:04:52;98272.03;;;28.17;43.81
67818;BME280;54614;47.576;7.524;2022-09-09T13:07:20;98275.78;;;28.28;42.63
67818;BME280;54614;47.576;7.524;2022-09-09T13:09:48;98276.16;;;28.19;42.29
67818;BME280;54614;47.576;7.524;2022-09-09T13:12:19;98266.84;;;28.27;41.59
67818;BME280;54614;47.576;7.524;2022-09-09T13:14:55;98264.72;;;28.29;41.87
67818;BME280;54614;47.576;7.524;2022-09-09T13:17:25;98254.72;;;28.30;42.29
67818;BME280;54614;47.576;7.524;2022-09-09T13:19:55;98248.81;;;28.33;42.33
67818;BME280;54614;47.576;7.524;2022-09-09T13:22:38;98250.72;;;28.32;42.35
67818;BME280;54614;47.576;7.524;2022-09-09T13:25:28;98253.75;;;28.36;42.34
67818;BME280;54614;47.576;7.524;2022-09-09T13:28:03;98254.97;;;28.28;42.75
67818;BME280;54614;47.576;7.524;2022-09-09T13:30:37;98258.41;;;28.23;42.83
67818;BME280;54614;47.576;7.524;2022-09-09T13:36:09;98246.41;;;28.19;42.79
67818;BME280;54614;47.576;7.524;2022-09-09T13:38:52;98246.16;;;28.21;42.69
67818;BME280;54614;47.576;7.524;2022-09-09T13:41:50;98232.41;;;28.22;42.77
67818;BME280;54614;47.576;7.524;2022-09-09T13:44:27;98232.75;;;28.26;42.76
67818;BME280;54614;47.576;7.524;2022-09-09T13:49:40;98234.16;;;28.29;42.82
67818;BME280;54614;47.576;7.524;2022-09-09T13:52:17;98227.91;;;28.28;42.79
67818;BME280;54614;47.576;7.524;2022-09-09T13:54:53;98220.53;;;28.23;42.93
67818;BME280;54614;47.576;7.524;2022-09-09T13:57:24;98225.94;;;28.23;42.96
67818;BME280;54614;47.576;7.524;2022-09-09T13:59:53;98214.63;;;28.27;43.01
67818;BME280;54614;47.576;7.524;2022-09-09T14:02:20;98226.66;;;28.19;43.16
67818;BME280;54614;47.576;7.524;2022-09-09T14:04:48;98221.25;;;28.19;43.02
67818;BME280;54614;47.576;7.524;2022-09-09T14:07:18;98212.69;;;28.10;43.09
67818;BME280;54614;47.576;7.524;2022-09-09T14:09:44;98215.16;;;28.12;42.75
67818;BME280;54614;47.576;7.524;2022-09-09T14:12:16;98211.88;;;28.10;42.55
67818;BME280;54614;47.576;7.524;2022-09-09T14:14:42;98213.75;;;28.09;42.08
67818;BME280;54614;47.576;7.524;2022-09-09T14:17:09;98218.03;;;28.05;42.33
67818;BME280;54614;47.576;7.524;2022-09-09T14:19:35;98214.69;;;28.15;41.79
67818;BME280;54614;47.576;7.524;2022-09-09T14:22:02;98221.63;;;28.11;41.66
67818;BME280;54614;47.576;7.524;2022-09-09T14:24:28;98216.97;;;28.06;41.70
67818;BME280;54614;47.576;7.524;2022-09-09T14:26:55;98223.53;;;28.10;41.46
67818;BME280;54614;47.576;7.524;2022-09-09T14:29:21;98221.88;;;28.09;41.35
67818;BME280;54614;47.576;7.524;2022-09-09T14:31:46;98222.22;;;28.13;41.10
67818;BME280;54614;47.576;7.524;2022-09-09T14:34:13;98220.47;;;28.07;40.96
67818;BME280;54614;47.576;7.524;2022-09-09T14:36:40;98221.88;;;28.09;40.78
67818;BME280;54614;47.576;7.524;2022-09-09T14:39:07;98228.84;;;28.05;40.94
67818;BME280;54614;47.576;7.524;2022-09-09T14:41:33;98226.03;;;28.00;41.47
67818;BME280;54614;47.576;7.524;2022-09-09T14:43:59;98219.66;;;28.06;41.35
67818;BME280;54614;47.576;7.524;2022-09-09T14:46:26;98215.94;;;27.96;41.27
67818;BME280;54614;47.576;7.524;2022-09-09T14:48:52;98221.25;;;27.90;41.61
67818;BME280;54614;47.576;7.524;2022-09-09T14:51:23;98213.91;;;28.03;40.88
67818;BME280;54614;47.576;7.524;2022-09-09T14:53:53;98214.06;;;27.96;40.44
67818;BME280;54614;47.576;7.524;2022-09-09T14:56:23;98219.63;;;27.89;40.94
67818;BME280;54614;47.576;7.524;2022-09-09T14:58:50;98219.47;;;27.96;40.57
67818;BME280;54614;47.576;7.524;2022-09-09T15:01:19;98205.38;;;27.94;40.23
67818;BME280;54614;47.576;7.524;2022-09-09T15:03:59;98204.94;;;27.85;40.14
67818;BME280;54614;47.576;7.524;2022-09-09T15:06:31;98202.75;;;27.82;40.28
67818;BME280;54614;47.576;7.524;2022-09-09T15:08:59;98202.25;;;27.85;40.73
67818;BME280;54614;47.576;7.524;2022-09-09T15:11:33;98204.81;;;27.92;40.94
67818;BME280;54614;47.576;7.524;2022-09-09T15:14:04;98205.31;;;28.06;40.95
67818;BME280;54614;47.576;7.524;2022-09-09T15:16:31;98211.03;;;27.92;41.29
67818;BME280;54614;47.576;7.524;2022-09-09T15:19:00;98224.53;;;27.92;41.36
67818;BME280;54614;47.576;7.524;2022-09-09T15:21:33;98229.22;;;27.97;41.25
67818;BME280;54614;47.576;7.524;2022-09-09T15:24:00;98235.69;;;27.96;41.23
67818;BME280;54614;47.576;7.524;2022-09-09T15:26:27;98244.28;;;27.93;41.44
67818;BME280;54614;47.576;7.524;2022-09-09T15:28:53;98241.28;;;28.06;40.59
67818;BME280;54614;47.576;7.524;2022-09-09T15:31:23;98235.69;;;27.96;41.02
67818;BME280;54614;47.576;7.524;2022-09-09T15:33:58;98258.44;;;27.83;41.45